sensor_id;sensor_type;location;lat;lon;timestamp;pressure;altitude;pressure_sealevel;temperature;humidity
71970;BME280;59838;52.152;5.436;2023-12-22T00:01:08;100254.03;;;6.27;100.00
71970;BME280;59838;52.152;5.436;2023-12-22T00:03:34;100254.72;;;6.20;100.00
71970;BME280;59838;52.152;5.436;2023-12-22T00:06:01;100273.44;;;6.14;100.00
71970;BME280;59838;52.152;5.436;2023-12-22T00:08:27;100282.16;;;6.05;100.00
71970;BME280;59838;52.152;5.436;2023-12-22T00:10:54;100288.59;;;5.93;100.00
71970;BME280;59838;52.152;5.436;2023-12-22T00:13:20;100302.19;;;5.78;100.00
71970;BME280;59838;52.152;5.436;2023-12-22T00:15:47;100299.13;;;5.66;100.00
71970;BME280;59838;52.152;5.436;2023-12-22T00:18:13;100291.56;;;5.57;100.00
71970;BME280;59838;52.152;5.436;2023-12-22T00:20:40;100293.19;;;5.49;100.00
71970;BME280;59838;52.152;5.436;2023-12-22T00:23:06;100305.59;;;5.46;100.00
71970;BME280;59838;52.152;5.436;2023-12-22T00:25:33;100303.19;;;5.44;100.00
71970;BME280;59838;52.152;5.436;2023-12-22T00:27:59;100279.34;;;5.42;100.00
71970;BME280;59838;52.152;5.436;2023-12-22T00:30:26;100294.31;;;5.39;100.00
71970;BME280;59838;52.152;5.436;2023-12-22T00:32:52;100298.84;;;5.37;100.00
71970;BME280;59838;52.152;5.436;2023-12-22T00:35:19;100290.31;;;5.36;100.00
71970;BME280;59838;52.152;5.436;2023-12-22T00:37:46;100310.72;;;5.38;100.00
71970;BME280;59838;52.152;5.436;2023-12-22T00:40:13;100303.34;;;5.35;100.00
71970;BME280;59838;52.152;5.436;2023-12-22T00:42:39;100288.22;;;5.31;100.00
71970;BME280;59838;52.152;5.436;2023-12-22T00:45:06;100296.28;;;5.28;100.00
71970;BME280;59838;52.152;5.436;2023-12-22T00:47:32;100289.97;;;5.31;100.00
71970;BME280;59838;52.152;5.436;2023-12-22T00:50:02;100302.06;;;5.30;100.00
71970;BME280;59838;52.152;5.436;2023-12-22T00:52:31;100299.16;;;5.34;100.00
71970;BME280;59838;52.152;5.436;2023-12-22T00:54:58;100303.53;;;5.33;100.00
71970;BME280;59838;52.152;5.436;2023-12-22T00:57:24;100307.38;;;5.29;100.00
71970;BME280;59838;52.152;5.436;2023-12-22T00:59:51;100327.34;;;5.27;100.00
71970;BME280;59838;52.152;5.436;2023-12-22T01:02:18;100315.09;;;5.29;100.00
71970;BME280;59838;52.152;5.436;2023-12-22T01:04:44;100319.13;;;5.31;100.00
71970;BME280;59838;52.152;5.436;2023-12-22T01:07:11;100323.63;;;5.29;100.00
71970;BME280;59838;52.152;5.436;2023-12-22T01:09:39;100331.34;;;5.29;100.00
71970;BME280;59838;52.152;5.436;2023-12-22T01:12:06;100332.81;;;5.32;100.00
71970;BME280;59838;52.152;5.436;2023-12-22T01:14:33;100339.06;;;5.38;100.00
71970;BME280;59838;52.152;5.436;2023-12-22T01:16:59;100335.22;;;5.42;100.00
71970;BME280;59838;52.152;5.436;2023-12-22T01:19:26;100339.25;;;5.44;100.00
71970;BME280;59838;52.152;5.436;2023-12-22T01:21:53;100347.63;;;5.46;100.00
71970;BME280;59838;52.152;5.436;2023-12-22T01:24:20;100339.09;;;5.46;100.00
71970;BME280;59838;52.152;5.436;2023-12-22T01:26:46;100324.44;;;5.46;100.00
71970;BME280;59838;52.152;5.436;2023-12-22T01:29:13;100327.50;;;5.50;100.00
71970;BME280;59838;52.152;5.436;2023-12-22T01:31:39;100322.34;;;5.50;100.00
71970;BME280;59838;52.152;5.436;2023-12-22T01:34:06;100321.69;;;5.48;100.00
71970;BME280;59838;52.152;5.436;2023-12-22T01:36:34;100327.66;;;5.48;100.00
71970;BME280;59838;52.152;5.436;2023-12-22T01:39:00;100322.03;;;5.45;100.00
71970;BME280;59838;52.152;5.436;2023-12-22T01:41:27;100331.69;;;5.43;100.00
71970;BME280;59838;52.152;5.436;2023-12-22T01:43:53;100328.44;;;5.41;100.00
71970;BME280;59838;52.152;5.436;2023-12-22T01:46:20;100316.06;;;5.36;100.00
71970;BME280;59838;52.152;5.436;2023-12-22T01:48:47;100326.03;;;5.39;100.00
71970;BME280;59838;52.152;5.436;2023-12-22T01:51:14;100323.63;;;5.38;100.00
71970;BME280;59838;52.152;5.436;2023-12-22T01:53:40;100320.88;;;5.31;100.00
71970;BME280;59838;52.152;5.436;2023-12-22T01:56:07;100316.03;;;5.28;100.00
71970;BME280;59838;52.152;5.436;2023-12-22T01:58:36;100325.56;;;5.27;100.00
71970;BME280;59838;52.152;5.436;2023-12-22T02:01:03;100339.22;;;5.28;100.00
71970;BME280;59838;52.152;5.436;2023-12-22T02:03:30;100334.59;;;5.31;100.00
71970;BME280;59838;52.152;5.436;2023-12-22T02:05:57;100327.19;;;5.28;100.00
71970;BME280;59838;52.152;5.436;2023-12-22T02:08:25;100333.59;;;5.24;100.00
71970;BME280;59838;52.152;5.436;2023-12-22T02:10:54;100327.50;;;5.25;100.00
71970;BME280;59838;52.152;5.436;2023-12-22T02:13:20;100327.50;;;5.34;100.00
71970;BME280;59838;52.152;5.436;2023-12-22T02:15:50;100327.03;;;5.38;100.00
71970;BME280;59838;52.152;5.436;2023-12-22T02:18:25;100320.72;;;5.41;100.00
71970;BME280;59838;52.152;5.436;2023-12-22T02:20:53;100314.28;;;5.45;100.00
71970;BME280;59838;52.152;5.436;2023-12-22T02:23:20;100310.59;;;5.47;100.00
71970;BME280;59838;52.152;5.436;2023-12-22T02:25:47;100310.59;;;5.47;100.00
71970;BME280;59838;52.152;5.436;2023-12-22T02:28:17;100299.47;;;5.47;100.00
71970;BME280;59838;52.152;5.436;2023-12-22T02:30:55;100296.25;;;5.45;100.00
71970;BME280;59838;52.152;5.436;2023-12-22T02:33:26;100298.03;;;5.44;100.00
71970;BME280;59838;52.152;5.436;2023-12-22T02:35:58;100298.19;;;5.43;100.00
71970;BME280;59838;52.152;5.436;2023-12-22T02:38:28;100294.31;;;5.39;100.00
71970;BME280;59838;52.152;5.436;2023-12-22T02:40:55;100287.38;;;5.39;100.00
71970;BME280;59838;52.152;5.436;2023-12-22T02:43:23;100275.19;;;5.41;100.00
71970;BME280;59838;52.152;5.436;2023-12-22T02:45:50;100250.69;;;5.45;100.00
71970;BME280;59838;52.152;5.436;2023-12-22T02:48:17;100258.72;;;5.50;100.00
71970;BME280;59838;52.152;5.436;2023-12-22T02:50:46;100255.34;;;5.58;100.00
71970;BME280;59838;52.152;5.436;2023-12-22T02:53:12;100261.75;;;5.79;100.00
71970;BME280;59838;52.152;5.436;2023-12-22T02:55:38;100252.66;;;5.91;100.00
71970;BME280;59838;52.152;5.436;2023-12-22T02:58:05;100260.41;;;6.08;100.00
71970;BME280;59838;52.152;5.436;2023-12-22T03:00:31;100280.84;;;6.17;100.00
71970;BME280;59838;52.152;5.436;2023-12-22T03:02:58;100279.53;;;6.21;100.00
71970;BME280;59838;52.152;5.436;2023-12-22T03:05:25;100278.69;;;6.29;100.00
71970;BME280;59838;52.152;5.436;2023-12-22T03:07:51;100284.56;;;6.46;100.00
71970;BME280;59838;52.152;5.436;2023-12-22T03:10:18;100290.84;;;6.52;100.00
71970;BME280;59838;52.152;5.436;2023-12-22T03:12:45;100311.94;;;6.55;100.00
71970;BME280;59838;52.152;5.436;2023-12-22T03:15:11;100323.56;;;6.59;100.00
71970;BME280;59838;52.152;5.436;2023-12-22T03:17:38;100318.44;;;6.51;100.00
71970;BME280;59838;52.152;5.436;2023-12-22T03:20:05;100326.75;;;6.30;100.00
71970;BME280;59838;52.152;5.436;2023-12-22T03:22:32;100315.81;;;6.12;100.00
71970;BME280;59838;52.152;5.436;2023-12-22T03:24:58;100326.78;;;6.06;100.00
71970;BME280;59838;52.152;5.436;2023-12-22T03:27:25;100341.00;;;6.01;100.00
71970;BME280;59838;52.152;5.436;2023-12-22T03:29:52;100321.78;;;5.96;100.00
71970;BME280;59838;52.152;5.436;2023-12-22T03:32:18;100332.44;;;5.93;100.00
71970;BME280;59838;52.152;5.436;2023-12-22T03:34:45;100371.47;;;5.90;100.00
71970;BME280;59838;52.152;5.436;2023-12-22T03:37:12;100341.81;;;5.85;100.00
71970;BME280;59838;52.152;5.436;2023-12-22T03:39:38;100370.97;;;5.78;100.00
71970;BME280;59838;52.152;5.436;2023-12-22T03:42:05;100368.72;;;5.66;100.00
71970;BME280;59838;52.152;5.436;2023-12-22T03:44:32;100377.09;;;5.52;100.00
71970;BME280;59838;52.152;5.436;2023-12-22T03:46:58;100390.78;;;5.44;100.00
71970;BME280;59838;52.152;5.436;2023-12-22T03:49:25;100383.69;;;5.38;100.00
71970;BME280;59838;52.152;5.436;2023-12-22T03:51:51;100360.97;;;5.34;100.00
71970;BME280;59838;52.152;5.436;2023-12-22T03:54:18;100358.09;;;5.28;100.00
71970;BME280;59838;52.152;5.436;2023-12-22T03:56:45;100361.78;;;5.26;100.00
71970;BME280;59838;52.152;5.436;2023-12-22T03:59:11;100355.81;;;5.25;100.00
71970;BME280;59838;52.152;5.436;2023-12-22T04:01:39;100367.56;;;5.28;100.00
71970;BME280;59838;52.152;5.436;2023-12-22T04:04:05;100360.66;;;5.28;100.00
71970;BME280;59838;52.152;5.436;2023-12-22T04:06:31;100358.09;;;5.28;100.00
71970;BME280;59838;52.152;5.436;2023-12-22T04:08:58;100358.88;;;5.29;100.00
71970;BME280;59838;52.152;5.436;2023-12-22T04:11:24;100349.22;;;5.31;100.00
71970;BME280;59838;52.152;5.436;2023-12-22T04:13:51;100355.81;;;5.34;100.00
71970;BME280;59838;52.152;5.436;2023-12-22T04:16:17;100360.81;;;5.35;100.00
71970;BME280;59838;52.152;5.436;2023-12-22T04:18:44;100361.31;;;5.39;100.00
71970;BME280;59838;52.152;5.436;2023-12-22T04:21:10;100364.34;;;5.42;100.00
71970;BME280;59838;52.152;5.436;2023-12-22T04:23:37;100359.03;;;5.44;100.00
71970;BME280;59838;52.152;5.436;2023-12-22T04:26:03;100368.56;;;5.43;100.00
71970;BME280;59838;52.152;5.436;2023-12-22T04:28:30;100370.50;;;5.41;100.00
71970;BME280;59838;52.152;5.436;2023-12-22T04:30:56;100369.03;;;5.39;100.00
71970;BME280;59838;52.152;5.436;2023-12-22T04:33:23;100369.81;;;5.39;100.00
71970;BME280;59838;52.152;5.436;2023-12-22T04:35:49;100358.41;;;5.42;100.00
71970;BME280;59838;52.152;5.436;2023-12-22T04:38:16;100359.72;;;5.46;100.00
71970;BME280;59838;52.152;5.436;2023-12-22T04:40:42;100374.03;;;5.48;100.00
71970;BME280;59838;52.152;5.436;2023-12-22T04:43:09;100379.97;;;5.49;100.00
71970;BME280;59838;52.152;5.436;2023-12-22T04:45:35;100373.88;;;5.50;100.00
71970;BME280;59838;52.152;5.436;2023-12-22T04:48:02;100371.28;;;5.50;100.00
71970;BME280;59838;52.152;5.436;2023-12-22T04:50:29;100376.28;;;5.52;100.00
71970;BME280;59838;52.152;5.436;2023-12-22T04:52:55;100372.09;;;5.50;100.00
71970;BME280;59838;52.152;5.436;2023-12-22T04:55:22;100378.06;;;5.51;100.00
71970;BME280;59838;52.152;5.436;2023-12-22T04:57:49;100379.66;;;5.52;100.00
71970;BME280;59838;52.152;5.436;2023-12-22T05:00:15;100366.94;;;5.50;100.00
71970;BME280;59838;52.152;5.436;2023-12-22T05:02:42;100372.59;;;5.46;100.00
71970;BME280;59838;52.152;5.436;2023-12-22T05:05:09;100380.63;;;5.43;100.00
71970;BME280;59838;52.152;5.436;2023-12-22T05:07:38;100376.59;;;5.40;100.00
71970;BME280;59838;52.152;5.436;2023-12-22T05:10:07;100371.59;;;5.39;100.00
71970;BME280;59838;52.152;5.436;2023-12-22T05:12:33;100364.84;;;5.38;100.00
71970;BME280;59838;52.152;5.436;2023-12-22T05:15:00;100371.91;;;5.36;100.00
71970;BME280;59838;52.152;5.436;2023-12-22T05:17:27;100355.97;;;5.32;100.00
71970;BME280;59838;52.152;5.436;2023-12-22T05:19:53;100360.34;;;5.31;100.00
71970;BME280;59838;52.152;5.436;2023-12-22T05:22:20;100354.22;;;5.32;100.00
71970;BME280;59838;52.152;5.436;2023-12-22T05:24:46;100351.63;;;5.32;100.00
71970;BME280;59838;52.152;5.436;2023-12-22T05:27:13;100344.41;;;5.36;100.00
71970;BME280;59838;52.152;5.436;2023-12-22T05:29:40;100353.09;;;5.43;100.00
71970;BME280;59838;52.152;5.436;2023-12-22T05:32:07;100362.59;;;5.51;100.00
71970;BME280;59838;52.152;5.436;2023-12-22T05:34:33;100352.63;;;5.64;100.00
71970;BME280;59838;52.152;5.436;2023-12-22T05:37:00;100346.81;;;5.79;100.00
71970;BME280;59838;52.152;5.436;2023-12-22T05:39:26;100346.47;;;5.90;100.00
71970;BME280;59838;52.152;5.436;2023-12-22T05:41:53;100335.84;;;6.01;100.00
71970;BME280;59838;52.152;5.436;2023-12-22T05:44:19;100340.31;;;6.16;100.00
71970;BME280;59838;52.152;5.436;2023-12-22T05:46:46;100340.00;;;6.19;100.00
71970;BME280;59838;52.152;5.436;2023-12-22T05:49:12;100346.56;;;6.30;100.00
71970;BME280;59838;52.152;5.436;2023-12-22T05:51:39;100333.63;;;6.38;100.00
71970;BME280;59838;52.152;5.436;2023-12-22T05:54:09;100335.84;;;6.49;100.00
71970;BME280;59838;52.152;5.436;2023-12-22T05:56:37;100337.94;;;6.54;100.00
71970;BME280;59838;52.152;5.436;2023-12-22T05:59:04;100355.94;;;6.62;100.00
71970;BME280;59838;52.152;5.436;2023-12-22T06:01:30;100363.88;;;6.61;100.00
71970;BME280;59838;52.152;5.436;2023-12-22T06:03:57;100340.75;;;6.67;100.00
71970;BME280;59838;52.152;5.436;2023-12-22T06:06:23;100345.72;;;6.77;100.00
71970;BME280;59838;52.152;5.436;2023-12-22T06:08:50;100340.69;;;6.84;100.00
71970;BME280;59838;52.152;5.436;2023-12-22T06:11:16;100339.72;;;6.85;100.00
71970;BME280;59838;52.152;5.436;2023-12-22T06:13:43;100329.22;;;6.86;100.00
71970;BME280;59838;52.152;5.436;2023-12-22T06:16:12;100327.09;;;6.90;100.00
71970;BME280;59838;52.152;5.436;2023-12-22T06:18:39;100335.44;;;7.00;100.00
71970;BME280;59838;52.152;5.436;2023-12-22T06:21:08;100325.56;;;7.04;100.00
71970;BME280;59838;52.152;5.436;2023-12-22T06:23:35;100334.22;;;7.11;100.00
71970;BME280;59838;52.152;5.436;2023-12-22T06:26:11;100352.06;;;7.21;100.00
71970;BME280;59838;52.152;5.436;2023-12-22T06:28:38;100341.06;;;7.27;100.00
71970;BME280;59838;52.152;5.436;2023-12-22T06:31:07;100335.44;;;7.23;100.00
71970;BME280;59838;52.152;5.436;2023-12-22T06:33:34;100335.09;;;7.26;100.00
71970;BME280;59838;52.152;5.436;2023-12-22T06:36:01;100342.84;;;7.26;100.00
71970;BME280;59838;52.152;5.436;2023-12-22T06:38:28;100345.38;;;7.35;100.00
71970;BME280;59838;52.152;5.436;2023-12-22T06:40:54;100327.91;;;7.37;100.00
71970;BME280;59838;52.152;5.436;2023-12-22T06:43:21;100332.56;;;7.41;100.00
71970;BME280;59838;52.152;5.436;2023-12-22T06:45:48;100343.69;;;7.42;100.00
71970;BME280;59838;52.152;5.436;2023-12-22T06:48:15;100331.94;;;7.39;100.00
71970;BME280;59838;52.152;5.436;2023-12-22T06:50:41;100339.69;;;7.39;100.00
71970;BME280;59838;52.152;5.436;2023-12-22T06:53:11;100332.91;;;7.38;100.00
71970;BME280;59838;52.152;5.436;2023-12-22T06:55:51;100339.00;;;7.45;100.00
71970;BME280;59838;52.152;5.436;2023-12-22T06:58:17;100336.06;;;7.48;100.00
71970;BME280;59838;52.152;5.436;2023-12-22T07:00:44;100324.91;;;7.48;100.00
71970;BME280;59838;52.152;5.436;2023-12-22T07:03:10;100337.13;;;7.54;100.00
71970;BME280;59838;52.152;5.436;2023-12-22T07:05:39;100333.25;;;7.58;100.00
71970;BME280;59838;52.152;5.436;2023-12-22T07:08:06;100324.31;;;7.61;100.00
71970;BME280;59838;52.152;5.436;2023-12-22T07:10:32;100332.50;;;7.64;100.00
71970;BME280;59838;52.152;5.436;2023-12-22T07:12:59;100319.59;;;7.64;100.00
71970;BME280;59838;52.152;5.436;2023-12-22T07:15:26;100310.88;;;7.65;100.00
71970;BME280;59838;52.152;5.436;2023-12-22T07:17:52;100320.25;;;7.66;100.00
71970;BME280;59838;52.152;5.436;2023-12-22T07:20:19;100322.66;;;7.68;100.00
71970;BME280;59838;52.152;5.436;2023-12-22T07:22:46;100325.06;;;7.69;100.00
71970;BME280;59838;52.152;5.436;2023-12-22T07:25:13;100338.97;;;7.68;100.00
71970;BME280;59838;52.152;5.436;2023-12-22T07:27:40;100349.13;;;7.70;100.00
71970;BME280;59838;52.152;5.436;2023-12-22T07:30:07;100331.03;;;7.70;100.00
71970;BME280;59838;52.152;5.436;2023-12-22T07:32:34;100345.19;;;7.74;100.00
71970;BME280;59838;52.152;5.436;2023-12-22T07:35:00;100337.63;;;7.73;100.00
71970;BME280;59838;52.152;5.436;2023-12-22T07:37:27;100343.59;;;7.73;100.00
71970;BME280;59838;52.152;5.436;2023-12-22T07:39:53;100337.91;;;7.78;100.00
71970;BME280;59838;52.152;5.436;2023-12-22T07:42:20;100327.41;;;7.79;100.00
71970;BME280;59838;52.152;5.436;2023-12-22T07:44:46;100335.16;;;7.79;100.00
71970;BME280;59838;52.152;5.436;2023-12-22T07:47:13;100328.00;;;7.81;100.00
71970;BME280;59838;52.152;5.436;2023-12-22T07:49:41;100328.81;;;7.82;100.00
71970;BME280;59838;52.152;5.436;2023-12-22T07:52:08;100345.84;;;7.76;100.00
71970;BME280;59838;52.152;5.436;2023-12-22T07:54:35;100350.44;;;7.66;100.00
71970;BME280;59838;52.152;5.436;2023-12-22T07:57:02;100337.13;;;7.54;100.00
71970;BME280;59838;52.152;5.436;2023-12-22T07:59:29;100326.41;;;7.42;100.00
71970;BME280;59838;52.152;5.436;2023-12-22T08:01:58;100351.34;;;7.35;100.00
71970;BME280;59838;52.152;5.436;2023-12-22T08:04:26;100362.22;;;7.30;100.00
71970;BME280;59838;52.152;5.436;2023-12-22T08:06:53;100365.94;;;7.28;100.00
71970;BME280;59838;52.152;5.436;2023-12-22T08:09:20;100361.91;;;7.25;100.00
71970;BME280;59838;52.152;5.436;2023-12-22T08:11:49;100362.25;;;7.22;100.00
71970;BME280;59838;52.152;5.436;2023-12-22T08:14:19;100343.34;;;7.22;100.00
71970;BME280;59838;52.152;5.436;2023-12-22T08:16:46;100337.75;;;7.18;100.00
71970;BME280;59838;52.152;5.436;2023-12-22T08:19:12;100352.06;;;7.21;100.00
71970;BME280;59838;52.152;5.436;2023-12-22T08:21:39;100343.34;;;7.22;100.00
71970;BME280;59838;52.152;5.436;2023-12-22T08:24:12;100337.69;;;7.26;100.00
71970;BME280;59838;52.152;5.436;2023-12-22T08:26:48;100329.25;;;7.32;100.00
71970;BME280;59838;52.152;5.436;2023-12-22T08:29:15;100317.91;;;7.33;100.00
71970;BME280;59838;52.152;5.436;2023-12-22T08:31:43;100314.34;;;7.35;100.00
71970;BME280;59838;52.152;5.436;2023-12-22T08:34:12;100316.78;;;7.36;100.00
71970;BME280;59838;52.152;5.436;2023-12-22T08:36:38;100312.22;;;7.38;100.00
71970;BME280;59838;52.152;5.436;2023-12-22T08:39:05;100312.22;;;7.38;100.00
71970;BME280;59838;52.152;5.436;2023-12-22T08:41:33;100298.16;;;7.41;100.00
71970;BME280;59838;52.152;5.436;2023-12-22T08:44:04;100297.81;;;7.44;100.00
71970;BME280;59838;52.152;5.436;2023-12-22T08:46:32;100306.03;;;7.47;100.00
71970;BME280;59838;52.152;5.436;2023-12-22T08:48:58;100301.47;;;7.49;100.00
71970;BME280;59838;52.152;5.436;2023-12-22T08:51:26;100303.72;;;7.53;100.00
71970;BME280;59838;52.152;5.436;2023-12-22T08:53:54;100291.22;;;7.56;100.00
71970;BME280;59838;52.152;5.436;2023-12-22T08:56:24;100293.28;;;7.61;100.00
71970;BME280;59838;52.152;5.436;2023-12-22T08:58:54;100286.16;;;7.63;100.00
71970;BME280;59838;52.152;5.436;2023-12-22T09:01:22;100283.88;;;7.68;100.00
71970;BME280;59838;52.152;5.436;2023-12-22T09:03:50;100297.06;;;7.73;100.00
71970;BME280;59838;52.152;5.436;2023-12-22T09:06:21;100294.91;;;7.77;100.00
71970;BME280;59838;52.152;5.436;2023-12-22T09:08:51;100300.53;;;7.80;100.00
71970;BME280;59838;52.152;5.436;2023-12-22T09:11:20;100307.75;;;7.85;100.00
71970;BME280;59838;52.152;5.436;2023-12-22T09:13:47;100301.28;;;7.89;100.00
71970;BME280;59838;52.152;5.436;2023-12-22T09:16:13;100298.34;;;7.92;100.00
71970;BME280;59838;52.152;5.436;2023-12-22T09:18:43;100306.34;;;7.97;100.00
71970;BME280;59838;52.152;5.436;2023-12-22T09:21:11;100304.22;;;8.01;100.00
71970;BME280;59838;52.152;5.436;2023-12-22T09:23:37;100304.03;;;8.02;100.00
71970;BME280;59838;52.152;5.436;2023-12-22T09:26:04;100310.19;;;8.01;100.00
71970;BME280;59838;52.152;5.436;2023-12-22T09:28:31;100316.88;;;7.96;100.00
71970;BME280;59838;52.152;5.436;2023-12-22T09:30:57;100296.28;;;7.87;100.00
71970;BME280;59838;52.152;5.436;2023-12-22T09:33:24;100319.47;;;7.81;100.00
71970;BME280;59838;52.152;5.436;2023-12-22T09:35:50;100303.19;;;7.72;100.00
71970;BME280;59838;52.152;5.436;2023-12-22T09:38:17;100306.47;;;7.66;100.00
71970;BME280;59838;52.152;5.436;2023-12-22T09:40:44;100311.22;;;7.62;100.00
71970;BME280;59838;52.152;5.436;2023-12-22T09:43:13;100313.97;;;7.61;100.00
71970;BME280;59838;52.152;5.436;2023-12-22T09:45:41;100300.44;;;7.59;100.00
71970;BME280;59838;52.152;5.436;2023-12-22T09:48:08;100307.22;;;7.60;100.00
71970;BME280;59838;52.152;5.436;2023-12-22T09:50:38;100308.81;;;7.61;100.00
71970;BME280;59838;52.152;5.436;2023-12-22T09:53:06;100300.59;;;7.57;100.00
71970;BME280;59838;52.152;5.436;2023-12-22T09:55:34;100307.22;;;7.60;100.00
71970;BME280;59838;52.152;5.436;2023-12-22T09:58:02;100298.47;;;7.61;100.00
71970;BME280;59838;52.152;5.436;2023-12-22T10:00:31;100291.97;;;7.65;100.00
71970;BME280;59838;52.152;5.436;2023-12-22T10:02:58;100298.84;;;7.73;100.00
71970;BME280;59838;52.152;5.436;2023-12-22T10:05:24;100300.72;;;7.79;100.00
71970;BME280;59838;52.152;5.436;2023-12-22T10:07:52;100296.81;;;7.83;100.00
71970;BME280;59838;52.152;5.436;2023-12-22T10:10:19;100301.09;;;7.91;100.00
71970;BME280;59838;52.152;5.436;2023-12-22T10:12:46;100306.97;;;7.99;100.00
71970;BME280;59838;52.152;5.436;2023-12-22T10:15:14;100311.88;;;8.09;100.00
71970;BME280;59838;52.152;5.436;2023-12-22T10:17:41;100309.03;;;8.19;100.00
71970;BME280;59838;52.152;5.436;2023-12-22T10:20:08;100306.16;;;8.29;100.00
71970;BME280;59838;52.152;5.436;2023-12-22T10:22:35;100310.25;;;8.38;100.00
71970;BME280;59838;52.152;5.436;2023-12-22T10:25:02;100309.56;;;8.44;100.00
71970;BME280;59838;52.152;5.436;2023-12-22T10:27:29;100307.41;;;8.48;100.00
71970;BME280;59838;52.152;5.436;2023-12-22T10:29:56;100321.94;;;8.49;100.00
71970;BME280;59838;52.152;5.436;2023-12-22T10:32:23;100316.41;;;8.52;100.00
71970;BME280;59838;52.152;5.436;2023-12-22T10:34:53;100324.00;;;8.53;100.00
71970;BME280;59838;52.152;5.436;2023-12-22T10:37:20;100304.91;;;8.54;100.00
71970;BME280;59838;52.152;5.436;2023-12-22T10:39:52;100305.69;;;8.55;100.00
71970;BME280;59838;52.152;5.436;2023-12-22T10:42:19;100317.66;;;8.56;100.00
71970;BME280;59838;52.152;5.436;2023-12-22T10:44:46;100324.47;;;8.57;100.00
71970;BME280;59838;52.152;5.436;2023-12-22T10:47:17;100307.50;;;8.54;100.00
71970;BME280;59838;52.152;5.436;2023-12-22T10:49:46;100313.03;;;8.51;100.00
71970;BME280;59838;52.152;5.436;2023-12-22T10:52:16;100324.81;;;8.54;100.00
71970;BME280;59838;52.152;5.436;2023-12-22T10:54:44;100319.72;;;8.60;100.00
71970;BME280;59838;52.152;5.436;2023-12-22T10:57:11;100314.97;;;8.64;100.00
71970;BME280;59838;52.152;5.436;2023-12-22T10:59:44;100317.81;;;8.69;100.00
71970;BME280;59838;52.152;5.436;2023-12-22T11:02:27;100307.09;;;8.72;100.00
71970;BME280;59838;52.152;5.436;2023-12-22T11:05:05;100296.38;;;8.75;100.00
71970;BME280;59838;52.152;5.436;2023-12-22T11:07:34;100297.16;;;8.76;100.00
71970;BME280;59838;52.152;5.436;2023-12-22T11:10:06;100298.94;;;8.75;100.00
71970;BME280;59838;52.152;5.436;2023-12-22T11:12:34;100305.56;;;8.78;100.00
71970;BME280;59838;52.152;5.436;2023-12-22T11:15:02;100281.50;;;8.84;100.00
71970;BME280;59838;52.152;5.436;2023-12-22T11:17:30;100295.34;;;8.91;100.00
71970;BME280;59838;52.152;5.436;2023-12-22T11:19:59;100289.78;;;8.94;100.00
71970;BME280;59838;52.152;5.436;2023-12-22T11:22:26;100302.19;;;8.99;100.00
71970;BME280;59838;52.152;5.436;2023-12-22T11:24:53;100301.59;;;9.04;100.00
71970;BME280;59838;52.152;5.436;2023-12-22T11:27:20;100294.09;;;9.09;100.00
71970;BME280;59838;52.152;5.436;2023-12-22T11:29:47;100293.09;;;9.10;100.00
71970;BME280;59838;52.152;5.436;2023-12-22T11:32:16;100287.13;;;9.09;100.00
71970;BME280;59838;52.152;5.436;2023-12-22T11:34:45;100269.16;;;9.08;100.00
71970;BME280;59838;52.152;5.436;2023-12-22T11:37:12;100278.75;;;9.07;100.00
71970;BME280;59838;52.152;5.436;2023-12-22T11:39:43;100282.13;;;9.08;100.00
71970;BME280;59838;52.152;5.436;2023-12-22T11:42:14;100287.13;;;9.09;100.00
71970;BME280;59838;52.152;5.436;2023-12-22T11:44:43;100281.56;;;9.12;100.00
71970;BME280;59838;52.152;5.436;2023-12-22T11:47:10;100286.38;;;9.15;100.00
71970;BME280;59838;52.152;5.436;2023-12-22T11:49:38;100267.59;;;9.13;100.00
71970;BME280;59838;52.152;5.436;2023-12-22T11:52:13;100273.00;;;9.12;100.00
71970;BME280;59838;52.152;5.436;2023-12-22T11:54:50;100261.44;;;9.14;100.00
71970;BME280;59838;52.152;5.436;2023-12-22T11:59:54;100271.69;;;9.23;100.00
71970;BME280;59838;52.152;5.436;2023-12-22T12:02:22;100263.16;;;9.29;100.00
71970;BME280;59838;52.152;5.436;2023-12-22T12:04:50;100256.63;;;9.33;100.00
71970;BME280;59838;52.152;5.436;2023-12-22T12:07:45;100242.47;;;9.36;100.00
71970;BME280;59838;52.152;5.436;2023-12-22T12:13:06;100239.50;;;9.39;100.00
71970;BME280;59838;52.152;5.436;2023-12-22T12:15:34;100222.97;;;9.40;100.00
71970;BME280;59838;52.152;5.436;2023-12-22T12:18:02;100212.03;;;9.44;100.00
71970;BME280;59838;52.152;5.436;2023-12-22T12:20:29;100223.81;;;9.47;100.00
71970;BME280;59838;52.152;5.436;2023-12-22T12:22:56;100225.03;;;9.51;100.00
71970;BME280;59838;52.152;5.436;2023-12-22T12:25:23;100218.47;;;9.55;100.00
71970;BME280;59838;52.152;5.436;2023-12-22T12:28:04;100228.66;;;9.57;100.00
71970;BME280;59838;52.152;5.436;2023-12-22T12:30:32;100229.44;;;9.57;100.00
71970;BME280;59838;52.152;5.436;2023-12-22T12:32:59;100232.03;;;9.57;100.00
71970;BME280;59838;52.152;5.436;2023-12-22T12:35:33;100232.47;;;9.61;100.00
71970;BME280;59838;52.152;5.436;2023-12-22T12:38:00;100221.72;;;9.64;100.00
71970;BME280;59838;52.152;5.436;2023-12-22T12:40:27;100218.94;;;9.65;100.00
71970;BME280;59838;52.152;5.436;2023-12-22T12:42:59;100216.53;;;9.64;100.00
71970;BME280;59838;52.152;5.436;2023-12-22T12:45:26;100234.69;;;9.64;100.00
71970;BME280;59838;52.152;5.436;2023-12-22T12:48:01;100245.06;;;9.64;100.00
71970;BME280;59838;52.152;5.436;2023-12-22T12:50:29;100252.44;;;9.67;100.00
71970;BME280;59838;52.152;5.436;2023-12-22T12:52:59;100237.31;;;9.70;100.00
71970;BME280;59838;52.152;5.436;2023-12-22T12:55:25;100247.91;;;9.76;100.00
71970;BME280;59838;52.152;5.436;2023-12-22T12:57:54;100229.97;;;9.81;100.00